Bedford, IN (47421)

7:37 PM EDT on June 02, 2015 (GMT -0400)
Rolling Acres | | Change Station
CLOSE
Current Station
Personal Weather Station
Location: Oolitic, IN
Elevation: 545 ft
Nearby Weather Stations

Elev 545 ft 38.89 °N, 86.53 °W | Updated 1 minute ago

Overcast
Overcast
68.3 °F
Feels Like 68.3 °F
N
0.0
Wind Variable Wind from NE
Gusts 0.0 mph

Today
High -- | Low -- °F
--% Chance of Precip.
Yesterday
High -- | Low -- °F
Precip. -- in
6:21 AM 9:05 PM
Full, 100% visible
Pressure 30.05 in
Visibility 10.0 miles
Clouds Few 3500 ft
Dew Point 58 °F
Humidity 71%
Rainfall 0.00 in
Snow Depth Not available.
UV 2 out of 12
Pollen 8.10 out of 12
Air Quality Not available.
Flu Activity No Activity
METAR KBMG 022253Z 04008KT 10SM FEW035 22/13 A3006 RMK AO2 SLP176 T02170128

More Conditions Fewer Conditions

Pressure 30.05 in
Visibility 10.0 miles
Clouds Few 3500 ft
Dew Point 58 °F
Humidity 71%
Rainfall 0.00 in
Snow Depth Not available.
UV 2 out of 12
Pollen 8.10 out of 12
Air Quality Not available.
Flu Activity No Activity
METAR KBMG 022253Z 04008KT 10SM FEW035 22/13 A3006 RMK AO2 SLP176 T02170128

More Conditions Fewer Conditions

10-Day Weather Forecast

×

Almanac

Astronomy

Jun. 02, 2015 Rise Set
Actual Time
Civil Twilight
Nautical Twilight
Astronomical Twilight
Moon
Length of Visible Light
Length of Day
Tomorrow will be .
, % of the Moon is Illuminated

Today's Extremes

State Highs State Lows

Community

WunderPhotos

Upload Photos

1,826,057 photos uploaded!

WunderBlogs® & News

Nearby

Air Quality

  Air Quality AQ Index Pollutant
Not available.

Snow Depth

Station Depth Elevation

Earthquake Activity

City Distance Mag. Time & Date
Minimum magnitude displayed is 2.5.

Coastal Water Temperatures

Place Temperature

Stations

Nearby Weather Stations

Station Location Temp. Windchill Dew Point Humidity Wind Precip. Elev Updated Type